sensor_id;sensor_type;location;lat;lon;timestamp;pressure;altitude;pressure_sealevel;temperature;humidity
55301;BME280;58302;51.446;-2.000;2024-01-27T00:00:41;102757.06;;;-0.62;100.00
55301;BME280;58302;51.446;-2.000;2024-01-27T00:03:07;102763.25;;;-0.62;100.00
55301;BME280;58302;51.446;-2.000;2024-01-27T00:05:35;102760.78;;;-0.54;100.00
55301;BME280;58302;51.446;-2.000;2024-01-27T00:08:02;102761.66;;;-0.43;100.00
55301;BME280;58302;51.446;-2.000;2024-01-27T00:10:33;102762.94;;;-0.38;100.00
55301;BME280;58302;51.446;-2.000;2024-01-27T00:13:00;102758.53;;;-0.39;100.00
55301;BME280;58302;51.446;-2.000;2024-01-27T00:15:30;102758.28;;;-0.36;100.00
55301;BME280;58302;51.446;-2.000;2024-01-27T00:17:56;102767.53;;;-0.40;100.00
55301;BME280;58302;51.446;-2.000;2024-01-27T00:20:27;102755.72;;;-0.47;100.00
55301;BME280;58302;51.446;-2.000;2024-01-27T00:22:53;102749.69;;;-0.49;100.00
55301;BME280;58302;51.446;-2.000;2024-01-27T00:25:19;102738.13;;;-0.59;100.00
55301;BME280;58302;51.446;-2.000;2024-01-27T00:27:45;102731.09;;;-0.60;100.00
55301;BME280;58302;51.446;-2.000;2024-01-27T00:30:12;102727.97;;;-0.65;100.00
55301;BME280;58302;51.446;-2.000;2024-01-27T00:32:39;102723.47;;;-0.65;100.00
55301;BME280;58302;51.446;-2.000;2024-01-27T00:35:07;102722.00;;;-0.78;100.00
55301;BME280;58302;51.446;-2.000;2024-01-27T00:37:35;102713.41;;;-0.92;100.00
55301;BME280;58302;51.446;-2.000;2024-01-27T00:40:02;102718.38;;;-1.08;100.00
55301;BME280;58302;51.446;-2.000;2024-01-27T00:42:29;102712.53;;;-1.23;100.00
55301;BME280;58302;51.446;-2.000;2024-01-27T00:45:04;102716.88;;;-1.31;100.00
55301;BME280;58302;51.446;-2.000;2024-01-27T00:47:31;102704.16;;;-1.39;100.00
55301;BME280;58302;51.446;-2.000;2024-01-27T00:49:57;102711.16;;;-1.48;100.00
55301;BME280;58302;51.446;-2.000;2024-01-27T00:52:24;102706.06;;;-1.51;100.00
55301;BME280;58302;51.446;-2.000;2024-01-27T00:54:50;102705.22;;;-1.51;100.00
55301;BME280;58302;51.446;-2.000;2024-01-27T00:57:17;102702.09;;;-1.56;100.00
55301;BME280;58302;51.446;-2.000;2024-01-27T00:59:47;102702.09;;;-1.56;100.00
55301;BME280;58302;51.446;-2.000;2024-01-27T01:02:13;102704.38;;;-1.52;100.00
55301;BME280;58302;51.446;-2.000;2024-01-27T01:04:41;102699.63;;;-1.48;100.00
55301;BME280;58302;51.446;-2.000;2024-01-27T01:07:09;102692.47;;;-1.48;100.00
55301;BME280;58302;51.446;-2.000;2024-01-27T01:09:35;102699.34;;;-1.45;100.00
55301;BME280;58302;51.446;-2.000;2024-01-27T01:12:01;102687.25;;;-1.49;100.00
55301;BME280;58302;51.446;-2.000;2024-01-27T01:14:28;102681.59;;;-1.56;100.00
55301;BME280;58302;51.446;-2.000;2024-01-27T01:16:55;102680.06;;;-1.58;100.00
55301;BME280;58302;51.446;-2.000;2024-01-27T01:19:21;102678.16;;;-1.47;100.00
55301;BME280;58302;51.446;-2.000;2024-01-27T01:21:48;102684.78;;;-1.41;100.00
55301;BME280;58302;51.446;-2.000;2024-01-27T01:24:15;102680.16;;;-1.39;100.00
55301;BME280;58302;51.446;-2.000;2024-01-27T01:26:41;102681.16;;;-1.40;100.00
55301;BME280;58302;51.446;-2.000;2024-01-27T01:29:08;102661.19;;;-1.46;100.00
55301;BME280;58302;51.446;-2.000;2024-01-27T01:31:35;102647.16;;;-1.48;100.00
55301;BME280;58302;51.446;-2.000;2024-01-27T01:34:02;102594.44;;;-1.35;100.00
55301;BME280;58302;51.446;-2.000;2024-01-27T01:36:29;102614.63;;;-1.32;100.00
55301;BME280;58302;51.446;-2.000;2024-01-27T01:38:55;102621.63;;;-1.41;100.00
55301;BME280;58302;51.446;-2.000;2024-01-27T01:41:21;102617.47;;;-1.54;100.00
55301;BME280;58302;51.446;-2.000;2024-01-27T01:43:47;102619.28;;;-1.65;100.00
55301;BME280;58302;51.446;-2.000;2024-01-27T01:46:13;102601.56;;;-1.66;100.00
55301;BME280;58302;51.446;-2.000;2024-01-27T01:48:40;102594.16;;;-1.62;100.00
55301;BME280;58302;51.446;-2.000;2024-01-27T01:51:08;102586.22;;;-1.52;100.00
55301;BME280;58302;51.446;-2.000;2024-01-27T01:53:34;102587.38;;;-1.45;100.00
55301;BME280;58302;51.446;-2.000;2024-01-27T01:56:01;102592.31;;;-1.41;100.00
55301;BME280;58302;51.446;-2.000;2024-01-27T01:58:28;102585.44;;;-1.34;100.00
55301;BME280;58302;51.446;-2.000;2024-01-27T02:01:03;102592.91;;;-1.27;100.00
55301;BME280;58302;51.446;-2.000;2024-01-27T02:03:29;102608.38;;;-1.21;100.00
55301;BME280;58302;51.446;-2.000;2024-01-27T02:05:56;102616.00;;;-1.07;100.00
55301;BME280;58302;51.446;-2.000;2024-01-27T02:08:22;102602.28;;;-0.83;100.00
55301;BME280;58302;51.446;-2.000;2024-01-27T02:10:51;102591.22;;;-0.69;100.00
55301;BME280;58302;51.446;-2.000;2024-01-27T02:13:18;102598.84;;;-0.64;100.00
55301;BME280;58302;51.446;-2.000;2024-01-27T02:15:45;102588.44;;;-0.58;100.00
55301;BME280;58302;51.446;-2.000;2024-01-27T02:18:11;102599.69;;;-0.54;100.00
55301;BME280;58302;51.446;-2.000;2024-01-27T02:20:37;102607.28;;;-0.49;100.00
55301;BME280;58302;51.446;-2.000;2024-01-27T02:23:04;102604.72;;;-0.51;100.00
55301;BME280;58302;51.446;-2.000;2024-01-27T02:25:32;102609.81;;;-0.48;100.00
55301;BME280;58302;51.446;-2.000;2024-01-27T02:27:59;102615.41;;;-0.51;100.00
55301;BME280;58302;51.446;-2.000;2024-01-27T02:30:28;102613.31;;;-0.57;100.00
55301;BME280;58302;51.446;-2.000;2024-01-27T02:32:55;102619.06;;;-0.62;100.00
55301;BME280;58302;51.446;-2.000;2024-01-27T02:35:23;102616.53;;;-0.63;100.00
55301;BME280;58302;51.446;-2.000;2024-01-27T02:37:50;102621.63;;;-0.41;100.00
55301;BME280;58302;51.446;-2.000;2024-01-27T02:40:18;102640.34;;;-0.21;100.00
55301;BME280;58302;51.446;-2.000;2024-01-27T02:42:44;102644.13;;;-0.05;100.00
55301;BME280;58302;51.446;-2.000;2024-01-27T02:45:14;102651.84;;;0.08;100.00
55301;BME280;58302;51.446;-2.000;2024-01-27T02:47:40;102653.69;;;0.17;100.00
55301;BME280;58302;51.446;-2.000;2024-01-27T02:50:08;102663.50;;;0.26;100.00
55301;BME280;58302;51.446;-2.000;2024-01-27T02:52:34;102666.06;;;0.28;100.00
55301;BME280;58302;51.446;-2.000;2024-01-27T02:55:01;102663.66;;;0.35;100.00
55301;BME280;58302;51.446;-2.000;2024-01-27T02:57:26;102664.03;;;0.49;100.00
55301;BME280;58302;51.446;-2.000;2024-01-27T02:59:53;102659.53;;;0.50;100.00
55301;BME280;58302;51.446;-2.000;2024-01-27T03:02:19;102650.53;;;0.41;100.00
55301;BME280;58302;51.446;-2.000;2024-01-27T03:04:45;102649.16;;;0.28;100.00
55301;BME280;58302;51.446;-2.000;2024-01-27T03:07:11;102638.59;;;0.16;100.00
55301;BME280;58302;51.446;-2.000;2024-01-27T03:09:37;102640.91;;;0.02;100.00
55301;BME280;58302;51.446;-2.000;2024-01-27T03:12:03;102631.47;;;-0.22;100.00
55301;BME280;58302;51.446;-2.000;2024-01-27T03:14:30;102633.56;;;-0.45;100.00
55301;BME280;58302;51.446;-2.000;2024-01-27T03:16:56;102631.56;;;-0.62;100.00
55301;BME280;58302;51.446;-2.000;2024-01-27T03:19:22;102633.38;;;-0.72;100.00
55301;BME280;58302;51.446;-2.000;2024-01-27T03:21:48;102629.00;;;-0.83;100.00
55301;BME280;58302;51.446;-2.000;2024-01-27T03:24:14;102617.88;;;-0.98;100.00
55301;BME280;58302;51.446;-2.000;2024-01-27T03:26:40;102620.50;;;-1.08;100.00
55301;BME280;58302;51.446;-2.000;2024-01-27T03:29:06;102620.31;;;-1.16;100.00
55301;BME280;58302;51.446;-2.000;2024-01-27T03:31:33;102627.19;;;-1.23;100.00
55301;BME280;58302;51.446;-2.000;2024-01-27T03:34:02;102629.53;;;-1.29;100.00
55301;BME280;58302;51.446;-2.000;2024-01-27T03:36:28;102611.94;;;-1.42;100.00
55301;BME280;58302;51.446;-2.000;2024-01-27T03:38:56;102619.06;;;-1.52;100.00
55301;BME280;58302;51.446;-2.000;2024-01-27T03:41:23;102621.81;;;-1.63;100.00
55301;BME280;58302;51.446;-2.000;2024-01-27T03:43:49;102618.81;;;-1.70;100.00
55301;BME280;58302;51.446;-2.000;2024-01-27T03:46:16;102610.94;;;-1.71;100.00
55301;BME280;58302;51.446;-2.000;2024-01-27T03:48:42;102614.34;;;-1.69;100.00
55301;BME280;58302;51.446;-2.000;2024-01-27T03:51:08;102612.19;;;-1.75;100.00
55301;BME280;58302;51.446;-2.000;2024-01-27T03:53:34;102611.00;;;-1.82;100.00
55301;BME280;58302;51.446;-2.000;2024-01-27T03:56:00;102614.06;;;-1.87;100.00
55301;BME280;58302;51.446;-2.000;2024-01-27T03:58:30;102616.31;;;-1.92;100.00
55301;BME280;58302;51.446;-2.000;2024-01-27T04:00:57;102610.97;;;-1.92;100.00
55301;BME280;58302;51.446;-2.000;2024-01-27T04:03:23;102605.28;;;-1.78;100.00
55301;BME280;58302;51.446;-2.000;2024-01-27T04:05:50;102607.19;;;-1.69;100.00
55301;BME280;58302;51.446;-2.000;2024-01-27T04:08:16;102610.28;;;-1.64;100.00
55301;BME280;58302;51.446;-2.000;2024-01-27T04:10:42;102618.75;;;-1.58;100.00
55301;BME280;58302;51.446;-2.000;2024-01-27T04:13:10;102614.25;;;-1.58;100.00
55301;BME280;58302;51.446;-2.000;2024-01-27T04:15:43;102607.03;;;-1.67;100.00
55301;BME280;58302;51.446;-2.000;2024-01-27T04:18:10;102618.69;;;-1.68;100.00
55301;BME280;58302;51.446;-2.000;2024-01-27T04:20:43;102619.53;;;-1.68;100.00
55301;BME280;58302;51.446;-2.000;2024-01-27T04:23:11;102619.78;;;-1.71;100.00
55301;BME280;58302;51.446;-2.000;2024-01-27T04:25:38;102614.19;;;-1.68;100.00
55301;BME280;58302;51.446;-2.000;2024-01-27T04:28:04;102614.91;;;-1.66;100.00
55301;BME280;58302;51.446;-2.000;2024-01-27T04:30:30;102617.97;;;-1.70;100.00
55301;BME280;58302;51.446;-2.000;2024-01-27T04:32:57;102598.72;;;-1.74;100.00
55301;BME280;58302;51.446;-2.000;2024-01-27T04:35:25;102594.25;;;-1.73;100.00
55301;BME280;58302;51.446;-2.000;2024-01-27T04:37:54;102596.38;;;-1.67;100.00
55301;BME280;58302;51.446;-2.000;2024-01-27T04:40:20;102605.53;;;-1.60;100.00
55301;BME280;58302;51.446;-2.000;2024-01-27T04:42:47;102614.81;;;-1.54;100.00
55301;BME280;58302;51.446;-2.000;2024-01-27T04:45:14;102610.06;;;-1.51;100.00
55301;BME280;58302;51.446;-2.000;2024-01-27T04:47:41;102619.91;;;-1.51;100.00
55301;BME280;58302;51.446;-2.000;2024-01-27T04:50:08;102624.00;;;-1.38;100.00
55301;BME280;58302;51.446;-2.000;2024-01-27T04:52:34;102617.88;;;-1.28;100.00
55301;BME280;58302;51.446;-2.000;2024-01-27T04:55:00;102618.94;;;-1.10;100.00
55301;BME280;58302;51.446;-2.000;2024-01-27T04:57:25;102611.56;;;-0.97;100.00
55301;BME280;58302;51.446;-2.000;2024-01-27T04:59:52;102622.38;;;-0.89;100.00
55301;BME280;58302;51.446;-2.000;2024-01-27T05:02:18;102596.13;;;-0.84;100.00
55301;BME280;58302;51.446;-2.000;2024-01-27T05:04:46;102583.50;;;-0.82;100.00
55301;BME280;58302;51.446;-2.000;2024-01-27T05:07:12;102591.22;;;-0.78;100.00
55301;BME280;58302;51.446;-2.000;2024-01-27T05:09:40;102583.63;;;-0.73;100.00
55301;BME280;58302;51.446;-2.000;2024-01-27T05:12:06;102582.81;;;-0.64;100.00
55301;BME280;58302;51.446;-2.000;2024-01-27T05:14:32;102612.06;;;-0.53;100.00
55301;BME280;58302;51.446;-2.000;2024-01-27T05:16:59;102616.00;;;-0.47;100.00
55301;BME280;58302;51.446;-2.000;2024-01-27T05:19:25;102620.75;;;-0.51;100.00
55301;BME280;58302;51.446;-2.000;2024-01-27T05:21:51;102622.31;;;-0.58;100.00
55301;BME280;58302;51.446;-2.000;2024-01-27T05:24:19;102617.94;;;-0.69;100.00
55301;BME280;58302;51.446;-2.000;2024-01-27T05:26:46;102621.00;;;-0.73;100.00
55301;BME280;58302;51.446;-2.000;2024-01-27T05:29:12;102628.03;;;-0.72;100.00
55301;BME280;58302;51.446;-2.000;2024-01-27T05:31:38;102623.13;;;-0.67;100.00
55301;BME280;58302;51.446;-2.000;2024-01-27T05:34:06;102618.78;;;-0.68;100.00
55301;BME280;58302;51.446;-2.000;2024-01-27T05:36:32;102619.06;;;-0.71;100.00
55301;BME280;58302;51.446;-2.000;2024-01-27T05:38:58;102611.72;;;-0.79;100.00
55301;BME280;58302;51.446;-2.000;2024-01-27T05:41:28;102613.81;;;-0.83;100.00
55301;BME280;58302;51.446;-2.000;2024-01-27T05:43:54;102604.41;;;-0.87;100.00
55301;BME280;58302;51.446;-2.000;2024-01-27T05:46:36;102584.56;;;-0.94;100.00
55301;BME280;58302;51.446;-2.000;2024-01-27T05:49:07;102598.59;;;-1.01;100.00
55301;BME280;58302;51.446;-2.000;2024-01-27T05:51:34;102590.47;;;-1.10;100.00
55301;BME280;58302;51.446;-2.000;2024-01-27T05:54:07;102580.31;;;-1.16;100.00
55301;BME280;58302;51.446;-2.000;2024-01-27T05:56:37;102580.28;;;-1.25;100.00
55301;BME280;58302;51.446;-2.000;2024-01-27T05:59:04;102590.38;;;-1.29;100.00
55301;BME280;58302;51.446;-2.000;2024-01-27T06:01:30;102596.09;;;-1.34;100.00
55301;BME280;58302;51.446;-2.000;2024-01-27T06:04:02;102591.31;;;-1.40;100.00
55301;BME280;58302;51.446;-2.000;2024-01-27T06:06:39;102586.25;;;-1.43;100.00
55301;BME280;58302;51.446;-2.000;2024-01-27T06:09:08;102588.94;;;-1.43;100.00
55301;BME280;58302;51.446;-2.000;2024-01-27T06:11:49;102586.81;;;-1.39;100.00
55301;BME280;58302;51.446;-2.000;2024-01-27T06:14:22;102576.00;;;-1.38;100.00
55301;BME280;58302;51.446;-2.000;2024-01-27T06:17:04;102581.63;;;-1.41;100.00
55301;BME280;58302;51.446;-2.000;2024-01-27T06:19:33;102571.38;;;-1.45;100.00
55301;BME280;58302;51.446;-2.000;2024-01-27T06:22:02;102579.50;;;-1.47;100.00
55301;BME280;58302;51.446;-2.000;2024-01-27T06:24:28;102588.50;;;-1.48;100.00
55301;BME280;58302;51.446;-2.000;2024-01-27T06:26:54;102601.28;;;-1.42;100.00
55301;BME280;58302;51.446;-2.000;2024-01-27T06:29:20;102584.00;;;-1.38;100.00
55301;BME280;58302;51.446;-2.000;2024-01-27T06:31:47;102582.78;;;-1.34;100.00
55301;BME280;58302;51.446;-2.000;2024-01-27T06:34:13;102592.59;;;-1.34;100.00
55301;BME280;58302;51.446;-2.000;2024-01-27T06:36:39;102593.13;;;-1.40;100.00
55301;BME280;58302;51.446;-2.000;2024-01-27T06:39:08;102585.41;;;-1.43;100.00
55301;BME280;58302;51.446;-2.000;2024-01-27T06:41:36;102596.78;;;-1.41;100.00
55301;BME280;58302;51.446;-2.000;2024-01-27T06:44:02;102597.50;;;-1.39;100.00
55301;BME280;58302;51.446;-2.000;2024-01-27T06:46:32;102584.75;;;-1.36;100.00
55301;BME280;58302;51.446;-2.000;2024-01-27T06:48:58;102578.72;;;-1.28;100.00
55301;BME280;58302;51.446;-2.000;2024-01-27T06:51:24;102575.94;;;-1.17;100.00
55301;BME280;58302;51.446;-2.000;2024-01-27T06:53:51;102576.00;;;-1.07;100.00
55301;BME280;58302;51.446;-2.000;2024-01-27T06:56:20;102577.97;;;-0.99;100.00
55301;BME280;58302;51.446;-2.000;2024-01-27T06:58:46;102579.41;;;-0.86;100.00
55301;BME280;58302;51.446;-2.000;2024-01-27T07:01:16;102577.72;;;-0.77;100.00
55301;BME280;58302;51.446;-2.000;2024-01-27T07:03:42;102578.72;;;-0.68;100.00
55301;BME280;58302;51.446;-2.000;2024-01-27T07:06:10;102587.59;;;-0.58;100.00
55301;BME280;58302;51.446;-2.000;2024-01-27T07:08:36;102589.84;;;-0.54;100.00
55301;BME280;58302;51.446;-2.000;2024-01-27T07:11:02;102578.31;;;-0.54;100.00
55301;BME280;58302;51.446;-2.000;2024-01-27T07:13:28;102580.84;;;-0.52;100.00
55301;BME280;58302;51.446;-2.000;2024-01-27T07:15:56;102581.84;;;-0.54;100.00
55301;BME280;58302;51.446;-2.000;2024-01-27T07:18:24;102574.09;;;-0.57;100.00
55301;BME280;58302;51.446;-2.000;2024-01-27T07:20:50;102574.25;;;-0.58;100.00
55301;BME280;58302;51.446;-2.000;2024-01-27T07:23:17;102578.03;;;-0.61;100.00
55301;BME280;58302;51.446;-2.000;2024-01-27T07:25:44;102580.84;;;-0.62;100.00
55301;BME280;58302;51.446;-2.000;2024-01-27T07:28:10;102575.22;;;-0.59;100.00
55301;BME280;58302;51.446;-2.000;2024-01-27T07:30:37;102576.47;;;-0.63;100.00
55301;BME280;58302;51.446;-2.000;2024-01-27T07:33:04;102574.66;;;-0.63;100.00
55301;BME280;58302;51.446;-2.000;2024-01-27T07:35:30;102584.22;;;-0.60;100.00
55301;BME280;58302;51.446;-2.000;2024-01-27T07:37:57;102571.72;;;-0.60;100.00
55301;BME280;58302;51.446;-2.000;2024-01-27T07:40:24;102558.78;;;-0.55;100.00
55301;BME280;58302;51.446;-2.000;2024-01-27T07:42:50;102562.00;;;-0.51;100.00
55301;BME280;58302;51.446;-2.000;2024-01-27T07:45:17;102570.75;;;-0.49;100.00
55301;BME280;58302;51.446;-2.000;2024-01-27T07:47:44;102579.44;;;-0.47;100.00
55301;BME280;58302;51.446;-2.000;2024-01-27T07:50:10;102590.56;;;-0.42;100.00
55301;BME280;58302;51.446;-2.000;2024-01-27T07:52:37;102581.41;;;-0.39;100.00
55301;BME280;58302;51.446;-2.000;2024-01-27T07:55:03;102586.31;;;-0.35;100.00
55301;BME280;58302;51.446;-2.000;2024-01-27T07:57:36;102595.06;;;-0.33;100.00
55301;BME280;58302;51.446;-2.000;2024-01-27T08:00:02;102597.00;;;-0.35;100.00
55301;BME280;58302;51.446;-2.000;2024-01-27T08:02:29;102589.16;;;-0.36;100.00
55301;BME280;58302;51.446;-2.000;2024-01-27T08:04:55;102584.91;;;-0.39;100.00
55301;BME280;58302;51.446;-2.000;2024-01-27T08:07:22;102592.66;;;-0.36;100.00
55301;BME280;58302;51.446;-2.000;2024-01-27T08:09:48;102596.03;;;-0.34;100.00
55301;BME280;58302;51.446;-2.000;2024-01-27T08:12:16;102591.25;;;-0.30;100.00
55301;BME280;58302;51.446;-2.000;2024-01-27T08:14:43;102590.13;;;-0.28;100.00
55301;BME280;58302;51.446;-2.000;2024-01-27T08:17:11;102585.91;;;-0.20;100.00
55301;BME280;58302;51.446;-2.000;2024-01-27T08:19:49;102586.03;;;-0.12;100.00
55301;BME280;58302;51.446;-2.000;2024-01-27T08:22:27;102587.00;;;-0.04;100.00
55301;BME280;58302;51.446;-2.000;2024-01-27T08:24:54;102587.59;;;0.00;100.00
55301;BME280;58302;51.446;-2.000;2024-01-27T08:27:24;102586.44;;;0.03;100.00
55301;BME280;58302;51.446;-2.000;2024-01-27T08:29:50;102597.41;;;0.09;100.00
55301;BME280;58302;51.446;-2.000;2024-01-27T08:32:16;102588.69;;;0.17;100.00
55301;BME280;58302;51.446;-2.000;2024-01-27T08:34:42;102588.63;;;0.26;100.00
55301;BME280;58302;51.446;-2.000;2024-01-27T08:37:18;102588.91;;;0.33;100.00
55301;BME280;58302;51.446;-2.000;2024-01-27T08:39:45;102582.81;;;0.41;100.00
55301;BME280;58302;51.446;-2.000;2024-01-27T08:42:12;102591.94;;;0.48;100.00
55301;BME280;58302;51.446;-2.000;2024-01-27T08:44:38;102588.09;;;0.60;100.00
55301;BME280;58302;51.446;-2.000;2024-01-27T08:47:05;102581.88;;;0.69;100.00
55301;BME280;58302;51.446;-2.000;2024-01-27T08:49:31;102580.00;;;0.79;100.00
55301;BME280;58302;51.446;-2.000;2024-01-27T08:51:57;102582.47;;;0.91;100.00
55301;BME280;58302;51.446;-2.000;2024-01-27T08:54:23;102576.75;;;1.03;100.00
55301;BME280;58302;51.446;-2.000;2024-01-27T08:56:50;102582.59;;;1.17;100.00
55301;BME280;58302;51.446;-2.000;2024-01-27T08:59:16;102576.19;;;1.27;100.00
55301;BME280;58302;51.446;-2.000;2024-01-27T09:01:42;102577.94;;;1.37;100.00
55301;BME280;58302;51.446;-2.000;2024-01-27T09:04:10;102577.88;;;1.46;100.00
55301;BME280;58302;51.446;-2.000;2024-01-27T09:06:36;102578.41;;;1.50;100.00
55301;BME280;58302;51.446;-2.000;2024-01-27T09:09:02;102585.53;;;1.59;100.00
55301;BME280;58302;51.446;-2.000;2024-01-27T09:11:28;102577.88;;;1.64;100.00
55301;BME280;58302;51.446;-2.000;2024-01-27T09:13:57;102588.84;;;1.71;100.00
55301;BME280;58302;51.446;-2.000;2024-01-27T09:16:23;102592.25;;;1.81;100.00
55301;BME280;58302;51.446;-2.000;2024-01-27T09:18:49;102597.38;;;1.92;100.00
55301;BME280;58302;51.446;-2.000;2024-01-27T09:21:19;102596.28;;;2.03;100.00
55301;BME280;58302;51.446;-2.000;2024-01-27T09:23:48;102597.41;;;2.18;100.00
55301;BME280;58302;51.446;-2.000;2024-01-27T09:26:14;102601.38;;;2.32;100.00
55301;BME280;58302;51.446;-2.000;2024-01-27T09:28:44;102605.81;;;2.49;100.00
55301;BME280;58302;51.446;-2.000;2024-01-27T09:31:11;102610.59;;;2.63;100.00
55301;BME280;58302;51.446;-2.000;2024-01-27T09:33:38;102622.06;;;2.74;100.00
55301;BME280;58302;51.446;-2.000;2024-01-27T09:36:05;102627.84;;;2.87;100.00
55301;BME280;58302;51.446;-2.000;2024-01-27T09:38:33;102622.66;;;2.94;100.00
55301;BME280;58302;51.446;-2.000;2024-01-27T09:41:00;102629.41;;;3.06;100.00
55301;BME280;58302;51.446;-2.000;2024-01-27T09:43:32;102623.91;;;3.15;100.00
55301;BME280;58302;51.446;-2.000;2024-01-27T09:46:02;102613.88;;;3.26;100.00
55301;BME280;58302;51.446;-2.000;2024-01-27T09:48:29;102611.38;;;3.32;100.00
55301;BME280;58302;51.446;-2.000;2024-01-27T09:50:58;102619.13;;;3.43;100.00
55301;BME280;58302;51.446;-2.000;2024-01-27T09:53:25;102610.75;;;3.55;100.00
55301;BME280;58302;51.446;-2.000;2024-01-27T09:55:51;102623.34;;;3.62;100.00
55301;BME280;58302;51.446;-2.000;2024-01-27T09:58:17;102621.69;;;3.78;100.00
55301;BME280;58302;51.446;-2.000;2024-01-27T10:00:44;102630.13;;;3.99;100.00
55301;BME280;58302;51.446;-2.000;2024-01-27T10:03:11;102621.88;;;4.09;100.00
55301;BME280;58302;51.446;-2.000;2024-01-27T10:05:38;102631.63;;;4.18;100.00
55301;BME280;58302;51.446;-2.000;2024-01-27T10:08:07;102622.84;;;4.32;100.00
55301;BME280;58302;51.446;-2.000;2024-01-27T10:10:35;102614.78;;;4.40;100.00
55301;BME280;58302;51.446;-2.000;2024-01-27T10:13:03;102616.25;;;4.59;100.00
55301;BME280;58302;51.446;-2.000;2024-01-27T10:15:30;102611.50;;;4.69;100.00
55301;BME280;58302;51.446;-2.000;2024-01-27T10:18:06;102613.00;;;4.80;100.00
55301;BME280;58302;51.446;-2.000;2024-01-27T10:20:34;102613.13;;;4.87;100.00
55301;BME280;58302;51.446;-2.000;2024-01-27T10:23:10;102601.19;;;4.89;100.00
55301;BME280;58302;51.446;-2.000;2024-01-27T10:25:40;102597.06;;;5.01;100.00
55301;BME280;58302;51.446;-2.000;2024-01-27T10:28:07;102591.94;;;5.15;100.00
55301;BME280;58302;51.446;-2.000;2024-01-27T10:30:35;102576.22;;;5.26;100.00
55301;BME280;58302;51.446;-2.000;2024-01-27T10:33:02;102560.13;;;5.41;100.00
55301;BME280;58302;51.446;-2.000;2024-01-27T10:35:30;102551.19;;;5.64;100.00
55301;BME280;58302;51.446;-2.000;2024-01-27T10:37:56;102545.94;;;5.85;100.00
55301;BME280;58302;51.446;-2.000;2024-01-27T10:40:22;102528.25;;;6.05;100.00
55301;BME280;58302;51.446;-2.000;2024-01-27T10:43:13;102506.28;;;6.23;100.00
55301;BME280;58302;51.446;-2.000;2024-01-27T10:45:41;102489.16;;;6.31;100.00
55301;BME280;58302;51.446;-2.000;2024-01-27T10:48:08;102491.47;;;6.34;100.00
55301;BME280;58302;51.446;-2.000;2024-01-27T10:50:39;102472.78;;;6.32;100.00
55301;BME280;58302;51.446;-2.000;2024-01-27T10:53:09;102472.09;;;6.30;100.00
55301;BME280;58302;51.446;-2.000;2024-01-27T10:55:36;102475.00;;;6.29;100.00
55301;BME280;58302;51.446;-2.000;2024-01-27T10:58:03;102461.88;;;6.26;100.00
55301;BME280;58302;51.446;-2.000;2024-01-27T11:00:31;102463.91;;;6.24;100.00
55301;BME280;58302;51.446;-2.000;2024-01-27T11:02:59;102449.78;;;6.22;100.00
55301;BME280;58302;51.446;-2.000;2024-01-27T11:05:28;102424.47;;;6.23;100.00
55301;BME280;58302;51.446;-2.000;2024-01-27T11:08:04;102395.66;;;6.30;100.00
55301;BME280;58302;51.446;-2.000;2024-01-27T11:10:31;102370.66;;;6.43;100.00
55301;BME280;58302;51.446;-2.000;2024-01-27T11:13:04;102370.78;;;6.49;100.00
55301;BME280;58302;51.446;-2.000;2024-01-27T11:15:30;102354.44;;;6.57;100.00
55301;BME280;58302;51.446;-2.000;2024-01-27T11:17:57;102347.34;;;6.56;100.00
55301;BME280;58302;51.446;-2.000;2024-01-27T11:20:25;102350.06;;;6.78;100.00
55301;BME280;58302;51.446;-2.000;2024-01-27T11:22:51;102342.03;;;6.84;100.00
55301;BME280;58302;51.446;-2.000;2024-01-27T11:25:18;102345.69;;;6.98;100.00
55301;BME280;58302;51.446;-2.000;2024-01-27T11:27:46;102345.94;;;7.03;100.00
55301;BME280;58302;51.446;-2.000;2024-01-27T11:30:26;102332.66;;;7.08;100.00
55301;BME280;58302;51.446;-2.000;2024-01-27T11:32:56;102331.22;;;7.12;100.00
55301;BME280;58302;51.446;-2.000;2024-01-27T11:35:24;102327.13;;;7.17;100.00
55301;BME280;58302;51.446;-2.000;2024-01-27T11:37:51;102331.41;;;7.32;100.00
55301;BME280;58302;51.446;-2.000;2024-01-27T11:40:18;102362.59;;;7.35;100.00
55301;BME280;58302;51.446;-2.000;2024-01-27T11:42:56;102373.78;;;7.53;100.00
55301;BME280;58302;51.446;-2.000;2024-01-27T11:45:22;102385.03;;;7.57;100.00
55301;BME280;58302;51.446;-2.000;2024-01-27T11:47:49;102409.38;;;7.57;100.00
55301;BME280;58302;51.446;-2.000;2024-01-27T11:50:18;102426.94;;;7.68;100.00
55301;BME280;58302;51.446;-2.000;2024-01-27T11:52:45;102448.50;;;7.82;100.00
55301;BME280;58302;51.446;-2.000;2024-01-27T11:55:11;102462.94;;;7.96;100.00
55301;BME280;58302;51.446;-2.000;2024-01-27T11:57:37;102484.34;;;8.19;100.00
55301;BME280;58302;51.446;-2.000;2024-01-27T12:00:04;102502.41;;;8.40;100.00
55301;BME280;58302;51.446;-2.000;2024-01-27T12:02:30;102529.16;;;8.56;100.00
55301;BME280;58302;51.446;-2.000;2024-01-27T12:04:56;102555.91;;;8.66;100.00
55301;BME280;58302;51.446;-2.000;2024-01-27T12:07:22;102575.38;;;8.83;100.00
55301;BME280;58302;51.446;-2.000;2024-01-27T12:09:51;102599.38;;;8.79;100.00
55301;BME280;58302;51.446;-2.000;2024-01-27T12:12:17;102623.97;;;8.78;100.00
55301;BME280;58302;51.446;-2.000;2024-01-27T12:14:48;102637.88;;;8.68;100.00
55301;BME280;58302;51.446;-2.000;2024-01-27T12:17:16;102644.69;;;8.57;100.00
55301;BME280;58302;51.446;-2.000;2024-01-27T12:19:49;102648.41;;;8.56;100.00
55301;BME280;58302;51.446;-2.000;2024-01-27T12:22:28;102651.66;;;8.45;100.00
55301;BME280;58302;51.446;-2.000;2024-01-27T12:24:55;102663.72;;;8.36;100.00
55301;BME280;58302;51.446;-2.000;2024-01-27T12:27:23;102652.97;;;8.28;100.00
55301;BME280;58302;51.446;-2.000;2024-01-27T12:29:50;102641.03;;;8.22;100.00
55301;BME280;58302;51.446;-2.000;2024-01-27T12:32:18;102630.78;;;8.17;100.00
55301;BME280;58302;51.446;-2.000;2024-01-27T12:34:45;102623.72;;;8.16;100.00